Time;durP1;ratioP1;P1;durP2;ratioP2;P2;SDS_P1;SDS_P2;PMS_P1;PMS_P2;Temp;Humidity;BMP_temperature;BMP_pressure;BME280_temperature;BME280_humidity;BME280_pressure;Samples;Min_cycle;Max_cycle;Signal;HPM_P1;HPM_P2
2022/01/29 00:00:50;;;;;;;46.38;21.27;;;7.10;99.90;;;;;;5034700;28;20175;-85
2022/01/29 00:03:15;;;;;;;42.92;20.85;;;7.10;99.90;;;;;;5035361;28;20230;-85
2022/01/29 00:05:41;;;;;;;39.38;19.00;;;7.20;99.90;;;;;;5035336;28;20208;-77
2022/01/29 00:08:06;;;;;;;34.75;19.23;;;7.30;99.90;;;;;;5035288;28;20568;-83
2022/01/29 00:10:32;;;;;;;38.20;19.65;;;7.20;99.90;;;;;;5035300;28;20174;-78
2022/01/29 00:12:58;;;;;;;33.97;18.60;;;7.20;99.90;;;;;;5035018;28;20660;-84
2022/01/29 00:15:23;;;;;;;39.58;20.13;;;7.20;99.90;;;;;;5035061;28;20168;-79
2022/01/29 00:17:49;;;;;;;44.42;20.25;;;7.40;99.90;;;;;;5035363;28;20528;-81
2022/01/29 00:20:15;;;;;;;46.45;20.35;;;7.30;99.90;;;;;;5035267;28;20644;-85
2022/01/29 00:22:41;;;;;;;35.60;18.83;;;7.40;99.90;;;;;;5034898;28;20195;-84
2022/01/29 00:25:10;;;;;;;40.92;19.88;;;7.50;99.90;;;;;;5033982;28;20569;-82
2022/01/29 00:27:36;;;;;;;45.72;20.25;;;7.60;99.90;;;;;;5034612;28;20172;-86
2022/01/29 00:30:08;;;;;;;37.85;17.60;;;7.60;99.90;;;;;;5034889;28;20171;-83
2022/01/29 00:32:34;;;;;;;39.00;19.02;;;7.60;99.90;;;;;;5034774;28;20192;-82
2022/01/29 00:35:00;;;;;;;39.08;19.60;;;7.50;99.90;;;;;;5034799;28;20167;-78
2022/01/29 00:37:25;;;;;;;35.65;18.48;;;7.50;99.90;;;;;;5034641;28;20170;-78
2022/01/29 00:39:51;;;;;;;34.88;18.17;;;7.40;99.90;;;;;;5034781;28;20519;-78
2022/01/29 00:42:17;;;;;;;38.33;19.05;;;7.40;99.90;;;;;;5034529;28;20230;-82
2022/01/29 00:44:43;;;;;;;33.92;17.88;;;7.40;99.90;;;;;;5034495;28;20199;-84
2022/01/29 00:47:08;;;;;;;38.20;17.42;;;7.40;99.90;;;;;;5034622;28;20633;-84
2022/01/29 00:49:34;;;;;;;36.17;17.92;;;7.30;99.90;;;;;;5034528;28;20167;-81
2022/01/29 00:52:00;;;;;;;44.30;19.10;;;7.20;99.90;;;;;;5034086;28;20190;-85
2022/01/29 00:54:26;;;;;;;34.40;16.58;;;7.30;99.90;;;;;;5034065;28;20168;-82
2022/01/29 00:56:51;;;;;;;49.45;19.63;;;7.30;99.90;;;;;;5034296;28;20159;-79
2022/01/29 00:59:17;;;;;;;46.92;20.90;;;7.20;99.90;;;;;;5033411;28;20205;-83
2022/01/29 01:01:42;;;;;;;42.55;18.42;;;7.10;99.90;;;;;;5033970;28;20266;-86
2022/01/29 01:04:08;;;;;;;38.10;17.77;;;7.10;99.90;;;;;;5033964;28;20628;-85
2022/01/29 01:06:34;;;;;;;53.53;20.02;;;7.10;99.90;;;;;;5034157;28;20176;-80
2022/01/29 01:08:59;;;;;;;38.88;19.05;;;7.10;99.90;;;;;;5034490;28;20172;-78
2022/01/29 01:11:25;;;;;;;48.47;18.88;;;7.20;99.90;;;;;;5034522;28;20275;-85
2022/01/29 01:13:51;;;;;;;37.72;18.05;;;7.20;99.90;;;;;;5033932;28;20255;-80
2022/01/29 01:16:16;;;;;;;39.55;18.67;;;7.10;99.90;;;;;;5034204;28;20532;-81
2022/01/29 01:18:42;;;;;;;37.85;19.70;;;7.20;99.90;;;;;;5033937;28;20172;-78
2022/01/29 01:21:07;;;;;;;46.83;20.25;;;7.30;99.90;;;;;;5033976;28;20167;-86
2022/01/29 01:23:33;;;;;;;59.80;19.85;;;7.40;99.90;;;;;;5036752;28;20832;-81
2022/01/29 01:26:01;;;;;;;57.25;21.92;;;7.30;99.90;;;;;;5043514;28;20290;-78
2022/01/29 01:28:27;;;;;;;40.60;19.33;;;7.20;99.90;;;;;;5055153;28;20148;-82
2022/01/29 01:30:53;;;;;;;47.85;18.95;;;7.30;99.90;;;;;;5034006;28;20179;-84
2022/01/29 01:33:18;;;;;;;38.80;19.63;;;7.40;99.90;;;;;;5033779;28;20164;-86
2022/01/29 01:35:49;;;;;;;42.78;20.70;;;7.40;99.90;;;;;;5034175;28;20190;-83
2022/01/29 01:38:25;;;;;;;43.42;19.63;;;7.40;99.90;;;;;;5033568;28;20187;-78
2022/01/29 01:40:56;;;;;;;43.88;19.45;;;7.50;99.90;;;;;;5033401;28;20170;-81
2022/01/29 01:43:22;;;;;;;47.60;20.75;;;7.50;99.90;;;;;;5033770;28;20168;-84
2022/01/29 01:45:48;;;;;;;38.63;18.17;;;7.60;99.90;;;;;;5032549;28;20576;-86
2022/01/29 01:48:13;;;;;;;41.15;20.65;;;7.60;99.90;;;;;;5032517;28;20175;-79
2022/01/29 01:50:40;;;;;;;37.10;17.63;;;7.50;99.90;;;;;;5033948;28;20164;-82
2022/01/29 01:53:06;;;;;;;42.65;21.15;;;7.50;99.90;;;;;;5033570;28;20588;-83
2022/01/29 01:55:32;;;;;;;38.05;17.73;;;7.40;99.90;;;;;;5033623;28;20182;-86
2022/01/29 01:57:58;;;;;;;47.33;19.52;;;7.40;99.90;;;;;;5033327;28;20637;-78
2022/01/29 02:00:25;;;;;;;50.92;18.42;;;7.50;99.90;;;;;;5033453;28;20183;-82
2022/01/29 02:02:51;;;;;;;43.65;18.58;;;7.50;99.90;;;;;;5033254;28;20187;-85
2022/01/29 02:05:17;;;;;;;45.53;19.02;;;7.40;99.90;;;;;;5033248;28;20234;-82
2022/01/29 02:07:43;;;;;;;31.77;18.45;;;7.50;99.90;;;;;;5033475;28;20522;-85
2022/01/29 02:10:11;;;;;;;33.97;17.23;;;7.50;99.90;;;;;;5033234;28;20175;-82
2022/01/29 02:12:58;;;;;;;40.35;18.33;;;7.50;99.90;;;;;;5031992;28;20593;-82
2022/01/29 02:15:25;;;;;;;35.05;16.73;;;7.70;99.90;;;;;;5033396;28;20164;-82
2022/01/29 02:17:51;;;;;;;40.63;19.88;;;7.70;99.90;;;;;;5033149;28;20247;-79
2022/01/29 02:20:20;;;;;;;38.05;18.27;;;7.70;99.90;;;;;;5032936;28;20253;-82
2022/01/29 02:22:46;;;;;;;34.97;17.92;;;7.70;99.90;;;;;;5031685;28;20610;-84
2022/01/29 02:25:27;;;;;;;34.20;18.13;;;7.70;99.90;;;;;;5032684;28;20216;-82
2022/01/29 02:27:53;;;;;;;33.95;17.63;;;7.70;99.90;;;;;;5032907;28;20640;-82
2022/01/29 02:30:18;;;;;;;42.22;17.55;;;7.70;99.90;;;;;;5032836;28;20214;-77
2022/01/29 02:32:45;;;;;;;33.33;16.08;;;7.70;99.90;;;;;;5034001;28;20226;-85
2022/01/29 02:35:10;;;;;;;30.15;16.60;;;7.70;99.90;;;;;;5032879;28;20167;-81
2022/01/29 02:37:36;;;;;;;32.50;17.25;;;7.50;99.90;;;;;;5032801;28;20250;-81
2022/01/29 02:40:02;;;;;;;31.48;17.00;;;7.40;99.90;;;;;;5032742;28;20579;-83
2022/01/29 02:42:28;;;;;;;37.83;16.88;;;7.60;99.90;;;;;;5032536;28;20180;-82
2022/01/29 02:44:53;;;;;;;38.88;18.38;;;7.70;99.90;;;;;;5032853;28;20214;-79
2022/01/29 02:47:31;;;;;;;29.60;15.73;;;7.80;99.90;;;;;;5032723;28;20663;-78
2022/01/29 02:49:57;;;;;;;32.30;16.80;;;7.90;99.90;;;;;;5032641;28;20179;-84
2022/01/29 02:52:22;;;;;;;25.65;15.50;;;7.90;99.90;;;;;;5034958;28;20200;-78
2022/01/29 02:54:48;;;;;;;29.05;15.38;;;7.80;99.90;;;;;;5036636;28;20246;-84
2022/01/29 02:57:14;;;;;;;26.60;14.00;;;7.80;99.90;;;;;;5035576;28;20168;-82
2022/01/29 02:59:42;;;;;;;34.90;15.15;;;7.80;99.90;;;;;;5038242;28;20182;-79
2022/01/29 03:02:08;;;;;;;30.80;15.40;;;7.60;99.90;;;;;;5041832;28;20179;-78
2022/01/29 03:04:34;;;;;;;24.05;14.30;;;7.80;99.90;;;;;;5039743;28;20198;-86
2022/01/29 03:06:59;;;;;;;28.25;15.05;;;7.90;99.90;;;;;;5040564;28;20175;-84
2022/01/29 03:09:26;;;;;;;29.17;15.10;;;8.00;99.90;;;;;;5042002;28;20651;-83
2022/01/29 03:11:52;;;;;;;24.90;13.95;;;7.90;99.90;;;;;;5044188;28;20241;-85
2022/01/29 03:14:18;;;;;;;25.10;13.98;;;7.90;99.90;;;;;;5043085;28;20168;-84
2022/01/29 03:16:45;;;;;;;22.67;12.60;;;7.90;99.90;;;;;;5041986;28;20235;-80
2022/01/29 03:19:11;;;;;;;20.17;12.13;;;7.80;99.90;;;;;;5041884;28;20225;-86
2022/01/29 03:21:36;;;;;;;23.33;12.27;;;7.80;99.90;;;;;;5044658;28;20257;-78
2022/01/29 03:24:05;;;;;;;18.83;11.90;;;7.90;99.90;;;;;;5050362;28;20183;-85
2022/01/29 03:26:30;;;;;;;26.48;13.88;;;8.00;99.90;;;;;;5050872;28;20238;-81
2022/01/29 03:28:56;;;;;;;24.70;12.57;;;8.10;99.90;;;;;;5052116;28;20671;-83
2022/01/29 03:31:26;;;;;;;24.92;12.70;;;8.10;99.90;;;;;;5049997;28;20199;-81
2022/01/29 03:33:52;;;;;;;19.13;11.32;;;8.20;99.90;;;;;;5039372;28;20625;-79
2022/01/29 03:36:18;;;;;;;21.02;13.18;;;8.20;99.90;;;;;;5040185;28;20160;-78
2022/01/29 03:38:43;;;;;;;18.85;11.48;;;8.20;99.90;;;;;;5040196;28;20190;-82
2022/01/29 03:41:11;;;;;;;25.85;13.07;;;8.20;99.90;;;;;;5040295;28;20172;-82
2022/01/29 03:43:44;;;;;;;20.20;13.75;;;8.00;99.90;;;;;;5043600;28;20258;-85
2022/01/29 03:46:09;;;;;;;21.67;13.68;;;7.90;99.90;;;;;;5040945;28;20564;-77
2022/01/29 03:48:35;;;;;;;24.00;13.13;;;7.90;99.90;;;;;;5040075;28;20159;-78
2022/01/29 03:51:02;;;;;;;18.35;11.98;;;8.20;99.90;;;;;;5038654;28;20175;-85
2022/01/29 03:53:28;;;;;;;21.95;13.05;;;8.20;99.90;;;;;;5043045;28;20164;-79
2022/01/29 03:55:54;;;;;;;20.35;12.00;;;8.10;99.90;;;;;;5048640;28;20187;-83
2022/01/29 03:58:19;;;;;;;19.88;13.13;;;8.10;99.90;;;;;;5055230;28;20167;-82
2022/01/29 04:00:45;;;;;;;20.17;13.07;;;8.10;99.90;;;;;;5044524;28;20195;-83
2022/01/29 04:03:10;;;;;;;20.17;12.50;;;8.10;99.90;;;;;;5039099;28;20191;-79
2022/01/29 04:05:36;;;;;;;18.23;12.05;;;8.20;99.90;;;;;;5040429;28;20783;-79
2022/01/29 04:08:06;;;;;;;14.68;11.63;;;8.10;99.90;;;;;;5041721;28;20295;-84
2022/01/29 04:10:31;;;;;;;17.38;11.15;;;8.20;99.90;;;;;;5039016;28;20171;-77
2022/01/29 04:12:58;;;;;;;16.33;12.05;;;8.10;99.90;;;;;;5038425;28;20180;-78
2022/01/29 04:15:23;;;;;;;16.35;11.57;;;8.20;99.90;;;;;;5036732;28;20167;-84
2022/01/29 04:17:49;;;;;;;18.80;11.27;;;8.10;99.90;;;;;;5036314;28;20160;-81
2022/01/29 04:20:15;;;;;;;21.20;10.65;;;8.20;99.90;;;;;;5035323;28;20206;-84
2022/01/29 04:22:40;;;;;;;17.08;11.90;;;8.30;99.90;;;;;;5034186;28;20203;-86
2022/01/29 04:25:07;;;;;;;14.70;11.77;;;8.30;99.90;;;;;;5034756;28;20627;-84
2022/01/29 04:27:42;;;;;;;14.50;10.48;;;8.30;99.90;;;;;;5034608;28;20206;-84
2022/01/29 04:30:24;;;;;;;17.85;11.43;;;8.20;99.90;;;;;;5035185;28;20254;-78
2022/01/29 04:35:19;;;;;;;15.05;10.90;;;8.20;99.90;;;;;;5039165;28;20172;-80
2022/01/29 04:37:46;;;;;;;15.82;9.18;;;8.30;99.90;;;;;;5039715;28;20165;-82
2022/01/29 04:40:12;;;;;;;15.43;11.00;;;8.30;99.90;;;;;;5040684;28;20167;-79
2022/01/29 04:42:38;;;;;;;14.93;10.57;;;8.40;99.90;;;;;;5041253;28;20192;-78
2022/01/29 04:45:04;;;;;;;14.82;10.38;;;8.40;99.90;;;;;;5041716;28;20202;-86
2022/01/29 04:47:33;;;;;;;18.10;11.23;;;8.40;99.90;;;;;;5041101;28;20172;-80
2022/01/29 04:49:59;;;;;;;14.32;10.65;;;8.40;99.90;;;;;;5042048;28;20183;-81
2022/01/29 04:52:25;;;;;;;12.82;10.13;;;8.50;99.90;;;;;;5040812;28;20689;-85
2022/01/29 04:54:51;;;;;;;13.73;10.52;;;8.40;99.90;;;;;;5041564;28;20168;-81
2022/01/29 04:57:17;;;;;;;15.45;10.55;;;8.40;99.90;;;;;;5039001;28;20175;-86
2022/01/29 04:59:43;;;;;;;12.77;10.98;;;8.50;99.90;;;;;;5034573;28;20167;-86
2022/01/29 05:02:08;;;;;;;14.85;10.88;;;8.40;99.90;;;;;;5034309;28;20180;-81
2022/01/29 05:04:34;;;;;;;12.68;10.38;;;8.40;99.90;;;;;;5034014;28;20624;-80
2022/01/29 05:06:59;;;;;;;13.25;10.75;;;8.50;99.90;;;;;;5034246;28;20190;-84
2022/01/29 05:09:32;;;;;;;18.17;11.90;;;8.60;99.90;;;;;;5033847;28;20694;-82
2022/01/29 05:12:00;;;;;;;14.50;10.85;;;8.70;99.90;;;;;;5033996;28;20184;-85
2022/01/29 05:14:37;;;;;;;12.35;9.90;;;8.80;99.90;;;;;;5033995;28;20179;-84
2022/01/29 05:27:53;;;;;;;12.07;10.07;;;8.70;99.90;;;;;;5033858;28;20268;-85
2022/01/29 05:30:19;;;;;;;15.00;10.30;;;8.70;99.90;;;;;;5033643;28;20206;-83
2022/01/29 05:32:45;;;;;;;13.90;10.05;;;8.70;99.90;;;;;;5032091;28;20195;-82
2022/01/29 05:35:10;;;;;;;18.35;11.07;;;8.70;99.90;;;;;;5033280;28;20179;-84
2022/01/29 05:37:36;;;;;;;12.48;10.57;;;8.80;99.90;;;;;;5033834;28;20596;-86
2022/01/29 05:40:02;;;;;;;12.27;9.60;;;9.00;99.90;;;;;;5033852;28;20190;-84
2022/01/29 05:42:27;;;;;;;15.13;10.20;;;9.00;99.90;;;;;;5033322;28;20184;-79
2022/01/29 05:44:53;;;;;;;13.85;9.48;;;8.90;99.90;;;;;;5033621;28;20227;-81
2022/01/29 05:47:18;;;;;;;15.13;9.85;;;8.80;99.90;;;;;;5033299;28;20176;-78
2022/01/29 05:49:44;;;;;;;12.02;10.18;;;8.90;99.90;;;;;;5032377;28;20218;-86
2022/01/29 05:52:09;;;;;;;13.68;10.95;;;8.80;99.90;;;;;;5033156;28;20188;-78
2022/01/29 05:54:35;;;;;;;11.40;10.15;;;8.80;99.90;;;;;;5033409;28;20179;-77
2022/01/29 05:57:00;;;;;;;12.32;10.35;;;8.70;99.90;;;;;;5033334;28;20540;-85
2022/01/29 05:59:26;;;;;;;11.15;9.50;;;8.80;99.90;;;;;;5032976;28;20168;-85
2022/01/29 06:01:51;;;;;;;13.73;10.82;;;8.80;99.90;;;;;;5033318;28;20191;-85
2022/01/29 06:04:17;;;;;;;12.05;9.27;;;8.80;99.90;;;;;;5033774;28;20172;-85
2022/01/29 06:06:44;;;;;;;12.52;9.75;;;8.70;99.90;;;;;;5033171;28;20693;-83
2022/01/29 06:09:09;;;;;;;15.98;8.77;;;8.70;99.90;;;;;;5032039;28;20175;-79
2022/01/29 06:11:35;;;;;;;10.60;9.50;;;8.90;99.90;;;;;;5033484;28;20683;-83
2022/01/29 06:14:01;;;;;;;13.48;9.52;;;8.90;99.90;;;;;;5033184;28;20160;-85
2022/01/29 06:16:27;;;;;;;11.70;9.45;;;8.90;99.90;;;;;;5033383;28;20176;-79
2022/01/29 06:18:52;;;;;;;8.75;7.85;;;9.00;99.90;;;;;;5032692;28;20182;-77
2022/01/29 06:21:18;;;;;;;15.57;10.50;;;9.00;99.90;;;;;;5032586;28;20294;-77
2022/01/29 06:23:44;;;;;;;14.98;8.68;;;9.10;99.90;;;;;;5033028;28;20172;-78
2022/01/29 06:26:12;;;;;;;11.85;9.18;;;9.00;99.90;;;;;;5035259;28;20269;-85
2022/01/29 06:28:38;;;;;;;14.15;9.93;;;9.00;99.90;;;;;;5035627;28;20181;-86
2022/01/29 06:31:05;;;;;;;9.85;8.55;;;9.10;99.90;;;;;;5037076;28;20667;-86
2022/01/29 06:33:31;;;;;;;11.00;8.98;;;9.10;99.90;;;;;;5036732;28;20213;-80
2022/01/29 06:35:56;;;;;;;12.95;10.05;;;9.20;99.90;;;;;;5036822;28;20591;-81
2022/01/29 06:38:22;;;;;;;15.68;9.77;;;9.30;99.90;;;;;;5036644;28;20160;-85
2022/01/29 06:40:48;;;;;;;15.30;9.07;;;9.40;99.90;;;;;;5036742;28;20186;-85
2022/01/29 06:43:14;;;;;;;12.23;9.50;;;9.20;99.90;;;;;;5036700;28;20527;-85
2022/01/29 06:45:41;;;;;;;13.40;9.60;;;9.10;99.90;;;;;;5036798;28;20204;-77
2022/01/29 06:48:08;;;;;;;16.02;9.32;;;9.10;99.90;;;;;;5036829;28;20160;-77
2022/01/29 06:50:35;;;;;;;16.08;10.43;;;9.10;99.90;;;;;;5036670;28;20167;-78
2022/01/29 06:53:01;;;;;;;16.45;9.43;;;9.20;99.90;;;;;;5035187;28;20749;-78
2022/01/29 06:55:27;;;;;;;14.77;10.45;;;9.20;99.90;;;;;;5036635;28;20211;-79
2022/01/29 06:57:53;;;;;;;13.00;9.57;;;9.30;99.90;;;;;;5036228;28;20174;-82
2022/01/29 07:00:18;;;;;;;11.18;9.05;;;9.40;99.90;;;;;;5036282;28;20179;-85
2022/01/29 07:02:44;;;;;;;12.15;9.48;;;9.40;99.90;;;;;;5036152;28;20203;-82
2022/01/29 07:05:10;;;;;;;11.95;9.35;;;9.30;99.90;;;;;;5036511;28;20293;-78
2022/01/29 07:07:36;;;;;;;12.48;9.82;;;9.40;99.90;;;;;;5036239;28;20285;-82
2022/01/29 07:10:03;;;;;;;12.82;10.43;;;9.40;99.90;;;;;;5035924;28;20640;-85
2022/01/29 07:12:29;;;;;;;11.52;9.27;;;9.50;99.90;;;;;;5035865;28;20180;-84
2022/01/29 07:14:54;;;;;;;10.85;9.63;;;9.60;99.90;;;;;;5035976;28;20160;-84
2022/01/29 07:17:22;;;;;;;13.13;9.93;;;9.60;99.90;;;;;;5034815;28;20255;-78
2022/01/29 07:19:50;;;;;;;19.42;9.50;;;9.50;99.90;;;;;;5036306;28;20172;-86
2022/01/29 07:22:16;;;;;;;13.68;10.27;;;9.60;99.90;;;;;;5035906;28;20229;-84
2022/01/29 07:24:42;;;;;;;15.25;10.07;;;9.60;99.90;;;;;;5036363;28;20255;-81
2022/01/29 07:27:07;;;;;;;13.35;9.65;;;9.60;99.90;;;;;;5035909;28;20528;-82
2022/01/29 07:29:33;;;;;;;10.32;9.23;;;9.60;99.90;;;;;;5035633;28;20196;-77
2022/01/29 07:32:00;;;;;;;20.02;10.27;;;9.50;99.90;;;;;;5036024;28;20230;-85
2022/01/29 07:34:27;;;;;;;15.60;9.60;;;9.50;99.90;;;;;;5036327;28;20182;-78
2022/01/29 07:36:55;;;;;;;14.23;11.35;;;9.60;99.90;;;;;;5034703;28;20160;-86
2022/01/29 07:39:22;;;;;;;21.05;10.77;;;9.80;99.90;;;;;;5034610;28;20167;-85
2022/01/29 07:41:48;;;;;;;16.15;10.73;;;9.80;99.90;;;;;;5035750;28;20613;-86
2022/01/29 07:44:14;;;;;;;11.80;9.35;;;9.90;99.90;;;;;;5036196;28;20195;-77
2022/01/29 07:46:41;;;;;;;12.82;9.70;;;9.80;99.90;;;;;;5035373;28;20290;-83
2022/01/29 07:49:07;;;;;;;15.95;10.65;;;9.80;99.90;;;;;;5034721;28;20187;-86
2022/01/29 07:51:32;;;;;;;12.48;9.70;;;9.80;99.90;;;;;;5035797;28;20192;-81
2022/01/29 07:53:58;;;;;;;12.00;9.32;;;9.80;99.90;;;;;;5036163;28;20171;-84
2022/01/29 07:56:24;;;;;;;8.95;8.05;;;9.80;99.90;;;;;;5044518;28;20243;-82
2022/01/29 07:58:51;;;;;;;14.75;9.85;;;9.80;99.90;;;;;;5043851;28;20168;-80
2022/01/29 08:01:18;;;;;;;9.07;8.18;;;9.60;99.90;;;;;;5046416;28;20215;-77
2022/01/29 08:03:48;;;;;;;15.98;8.77;;;9.70;99.90;;;;;;5044380;28;20171;-83
2022/01/29 08:06:14;;;;;;;13.88;8.82;;;9.70;99.90;;;;;;5035333;28;20199;-78
2022/01/29 08:08:40;;;;;;;11.07;8.52;;;9.70;99.90;;;;;;5035449;28;20156;-79
2022/01/29 08:11:07;;;;;;;12.15;10.05;;;9.80;99.90;;;;;;5033507;28;20649;-84
2022/01/29 08:13:33;;;;;;;11.52;7.70;;;9.90;99.90;;;;;;5034796;28;20184;-84
2022/01/29 08:15:59;;;;;;;10.43;8.25;;;10.00;99.90;;;;;;5034833;28;20253;-79
2022/01/29 08:18:24;;;;;;;9.45;7.38;;;9.90;99.90;;;;;;5034709;28;20322;-83
2022/01/29 08:20:50;;;;;;;8.10;7.05;;;9.80;99.90;;;;;;5034970;28;20178;-77
2022/01/29 08:23:16;;;;;;;12.00;7.60;;;9.90;99.90;;;;;;5034454;28;20200;-82
2022/01/29 08:25:41;;;;;;;12.90;8.80;;;10.00;99.90;;;;;;5034721;28;20275;-78
2022/01/29 08:28:07;;;;;;;17.15;8.13;;;10.00;99.90;;;;;;5034546;28;20640;-79
2022/01/29 08:30:33;;;;;;;14.55;8.15;;;10.00;99.90;;;;;;5034665;28;20724;-79
2022/01/29 08:33:00;;;;;;;7.43;5.97;;;10.10;99.90;;;;;;5034917;28;20201;-80
2022/01/29 08:35:26;;;;;;;7.70;6.93;;;10.10;99.90;;;;;;5034297;28;20164;-79
2022/01/29 08:37:53;;;;;;;9.52;6.90;;;10.10;99.90;;;;;;5034383;28;20195;-79
2022/01/29 08:40:19;;;;;;;10.05;6.20;;;10.10;99.90;;;;;;5045632;28;20182;-79
2022/01/29 08:42:44;;;;;;;7.78;6.28;;;10.00;99.90;;;;;;5052662;28;20561;-83
2022/01/29 08:45:10;;;;;;;7.22;6.63;;;10.20;99.90;;;;;;5051366;28;20242;-80
2022/01/29 08:47:35;;;;;;;8.88;5.55;;;10.20;99.90;;;;;;5053642;28;20171;-85
2022/01/29 08:50:03;;;;;;;6.88;5.90;;;10.20;99.90;;;;;;5054423;28;20534;-90
2022/01/29 08:52:30;;;;;;;6.43;5.82;;;10.20;99.90;;;;;;5053821;28;20240;-84
2022/01/29 08:54:56;;;;;;;7.95;5.75;;;10.20;99.90;;;;;;5053178;28;20171;-89
2022/01/29 08:57:28;;;;;;;7.60;4.43;;;10.20;99.90;;;;;;5061001;28;20663;-84
2022/01/29 08:59:53;;;;;;;5.32;4.10;;;10.10;99.90;;;;;;5063161;28;20221;-85
2022/01/29 09:02:19;;;;;;;6.35;5.50;;;10.10;99.90;;;;;;5067284;28;20183;-86
2022/01/29 09:04:45;;;;;;;6.60;5.32;;;10.10;99.90;;;;;;5064398;28;20174;-87
2022/01/29 09:07:11;;;;;;;7.22;5.97;;;10.20;99.90;;;;;;5067886;28;20611;-86
2022/01/29 09:09:43;;;;;;;15.57;8.98;;;10.10;99.90;;;;;;5066641;28;20163;-85
2022/01/29 09:12:10;;;;;;;8.23;5.90;;;10.10;99.90;;;;;;5059301;28;20201;-85
2022/01/29 09:14:35;;;;;;;11.02;6.45;;;10.10;99.90;;;;;;5069315;28;20182;-80
2022/01/29 09:17:01;;;;;;;9.43;5.72;;;10.10;99.90;;;;;;5070603;28;20249;-79
2022/01/29 09:19:27;;;;;;;6.78;6.07;;;10.20;99.90;;;;;;5072047;28;20179;-79
2022/01/29 09:21:54;;;;;;;12.10;5.72;;;10.20;99.90;;;;;;5072213;28;20215;-78
2022/01/29 09:24:21;;;;;;;6.43;5.63;;;10.20;99.90;;;;;;5070823;28;20171;-79
2022/01/29 09:26:49;;;;;;;7.47;4.82;;;10.10;99.90;;;;;;5070067;28;20199;-78
2022/01/29 09:29:17;;;;;;;12.23;7.30;;;10.10;99.90;;;;;;5070805;28;20191;-77
2022/01/29 09:31:43;;;;;;;10.55;7.57;;;10.20;99.90;;;;;;5068050;28;20209;-78
2022/01/29 09:34:10;;;;;;;7.10;5.78;;;10.20;99.90;;;;;;5067256;28;20642;-78
2022/01/29 09:36:36;;;;;;;5.20;4.55;;;10.20;99.90;;;;;;5069063;28;20213;-78
2022/01/29 09:39:01;;;;;;;5.78;4.72;;;10.20;99.90;;;;;;5070187;28;20628;-81
2022/01/29 09:41:28;;;;;;;8.95;5.82;;;10.30;99.90;;;;;;5070532;28;20825;-77
2022/01/29 09:43:56;;;;;;;6.47;5.32;;;10.30;99.90;;;;;;5038308;28;20183;-79
2022/01/29 09:46:23;;;;;;;7.55;5.20;;;10.50;99.90;;;;;;5065570;28;20248;-80
2022/01/29 09:48:49;;;;;;;10.45;5.03;;;10.50;99.90;;;;;;5062720;28;20171;-78
2022/01/29 09:51:15;;;;;;;7.53;4.10;;;10.60;99.90;;;;;;5062148;28;20213;-78
2022/01/29 09:53:43;;;;;;;5.93;4.30;;;10.70;99.90;;;;;;5063890;28;20175;-79
2022/01/29 09:56:10;;;;;;;4.35;3.95;;;10.80;99.90;;;;;;5064507;28;20217;-78
2022/01/29 09:58:36;;;;;;;9.55;4.38;;;10.80;99.90;;;;;;5058792;28;20167;-80
2022/01/29 10:01:02;;;;;;;4.85;4.28;;;10.80;99.90;;;;;;5057032;28;20167;-79
2022/01/29 10:03:28;;;;;;;7.47;3.85;;;10.80;99.90;;;;;;5058971;28;20643;-78
2022/01/29 10:05:57;;;;;;;4.05;3.65;;;10.90;99.90;;;;;;5059111;28;20206;-78
2022/01/29 10:08:23;;;;;;;6.90;3.20;;;11.00;99.90;;;;;;5056036;28;20164;-76
2022/01/29 10:10:49;;;;;;;3.13;2.80;;;11.00;99.90;;;;;;5058840;28;20159;-77
2022/01/29 10:13:24;;;;;;;4.90;3.15;;;11.00;99.90;;;;;;5059724;28;20186;-79
2022/01/29 10:15:51;;;;;;;4.13;2.72;;;11.00;99.90;;;;;;5056505;28;20182;-78
2022/01/29 10:18:23;;;;;;;3.13;2.83;;;11.00;99.90;;;;;;5060747;28;20189;-77
2022/01/29 10:20:50;;;;;;;3.45;2.97;;;11.10;99.90;;;;;;5058585;28;20179;-79
2022/01/29 10:23:16;;;;;;;6.07;2.92;;;11.10;99.90;;;;;;5059753;28;20207;-81
2022/01/29 10:25:44;;;;;;;4.50;2.88;;;11.20;99.90;;;;;;5064828;28;20205;-79
2022/01/29 10:28:18;;;;;;;6.15;4.05;;;11.30;99.90;;;;;;5059539;28;20163;-78
2022/01/29 10:30:49;;;;;;;3.90;3.05;;;11.30;99.90;;;;;;5060000;28;20181;-80
2022/01/29 10:33:36;;;;;;;4.00;3.00;;;11.40;99.90;;;;;;5053477;28;20554;-79
2022/01/29 10:36:09;;;;;;;3.33;2.85;;;11.30;99.90;;;;;;5047187;28;20174;-77
2022/01/29 10:38:40;;;;;;;3.63;1.98;;;11.30;99.90;;;;;;5053083;28;20175;-79
2022/01/29 10:41:26;;;;;;;6.20;2.65;;;11.30;99.90;;;;;;5037902;28;20186;-82
2022/01/29 10:46:43;;;;;;;2.53;2.33;;;11.40;99.90;;;;;;5032810;28;20269;-78
2022/01/29 10:49:26;;;;;;;3.03;2.10;;;11.60;99.90;;;;;;5033805;28;20164;-81
2022/01/29 10:52:05;;;;;;;4.07;2.45;;;11.70;99.90;;;;;;5031669;28;20267;-78
2022/01/29 10:54:33;;;;;;;3.08;2.78;;;11.90;99.90;;;;;;5032737;28;20181;-76
2022/01/29 10:57:03;;;;;;;2.20;2.10;;;11.80;99.90;;;;;;5031784;28;20246;-83
2022/01/29 10:59:32;;;;;;;5.22;2.80;;;11.70;99.90;;;;;;5032104;28;20168;-80
2022/01/29 11:02:04;;;;;;;2.88;2.50;;;11.60;99.90;;;;;;5032412;28;20298;-77
2022/01/29 11:04:35;;;;;;;2.33;2.13;;;11.60;99.90;;;;;;5031793;28;20225;-81
2022/01/29 11:07:09;;;;;;;5.72;3.42;;;11.80;99.90;;;;;;5040403;28;20254;-76
2022/01/29 11:09:34;;;;;;;3.05;2.67;;;11.70;99.90;;;;;;5039364;28;20156;-77
2022/01/29 11:12:04;;;;;;;3.13;2.00;;;11.80;99.90;;;;;;5039259;28;20199;-76
2022/01/29 11:14:32;;;;;;;2.30;2.10;;;11.90;99.90;;;;;;5045022;28;20210;-77
2022/01/29 11:16:59;;;;;;;5.10;2.50;;;12.10;99.90;;;;;;5038276;28;20179;-80
2022/01/29 11:19:25;;;;;;;2.63;1.83;;;12.10;99.90;;;;;;5039536;28;20220;-77
2022/01/29 11:21:53;;;;;;;5.05;2.58;;;12.10;99.90;;;;;;5055319;28;20253;-84
2022/01/29 11:24:23;;;;;;;5.43;2.75;;;12.10;99.90;;;;;;5056639;28;20624;-84
2022/01/29 11:26:50;;;;;;;2.50;2.17;;;11.90;99.90;;;;;;5061099;28;20234;-78
2022/01/29 11:29:26;;;;;;;11.75;3.95;;;11.70;99.90;;;;;;5063540;28;20163;-90
2022/01/29 11:32:23;;;;;;;4.80;2.83;;;11.80;99.90;;;;;;5059382;28;20198;-78
2022/01/29 11:35:16;;;;;;;2.28;1.95;;;11.90;99.90;;;;;;5060514;28;20272;-77
2022/01/29 11:37:48;;;;;;;7.05;3.42;;;11.90;99.90;;;;;;5062176;28;20167;-80
2022/01/29 11:40:13;;;;;;;11.30;5.18;;;11.90;99.90;;;;;;5060209;28;20282;-86
2022/01/29 11:43:06;;;;;;;26.10;9.82;;;12.00;99.90;;;;;;5053646;28;20216;-83
2022/01/29 11:45:53;;;;;;;12.25;5.75;;;12.00;99.90;;;;;;5063236;28;20210;-79
2022/01/29 11:49:10;;;;;;;4.40;2.25;;;12.20;99.90;;;;;;5061588;28;20627;-82
2022/01/29 11:51:12;;;;;;;15.25;4.45;;;12.10;99.90;;;;;;5061663;28;20547;-77
2022/01/29 11:53:44;;;;;;;7.05;3.95;;;12.10;99.90;;;;;;5063968;28;20209;-76
2022/01/29 11:56:29;;;;;;;20.17;8.68;;;12.10;99.90;;;;;;5066382;28;20175;-77
2022/01/29 11:59:17;;;;;;;9.93;3.67;;;12.10;99.90;;;;;;5064327;28;20623;-78
2022/01/29 12:01:43;;;;;;;3.30;2.85;;;12.10;99.90;;;;;;5068622;28;20175;-78
2022/01/29 12:04:09;;;;;;;8.77;2.05;;;12.10;99.90;;;;;;5063058;28;20183;-78
2022/01/29 12:06:40;;;;;;;4.50;2.88;;;12.10;99.90;;;;;;5066067;28;20682;-77
2022/01/29 12:09:09;;;;;;;9.10;2.67;;;12.00;99.90;;;;;;5063579;28;20190;-77
2022/01/29 12:11:38;;;;;;;2.00;1.80;;;12.00;99.90;;;;;;5059354;28;20226;-77
2022/01/29 12:14:13;;;;;;;11.18;2.33;;;12.10;99.90;;;;;;5059074;28;20163;-77
2022/01/29 12:16:47;;;;;;;6.28;2.80;;;12.00;99.90;;;;;;5063061;28;20178;-77
2022/01/29 12:19:39;;;;;;;5.60;2.50;;;12.10;99.90;;;;;;5059556;28;20215;-78
2022/01/29 12:22:12;;;;;;;4.50;2.00;;;12.10;99.90;;;;;;5061249;28;20244;-79
2022/01/29 12:24:39;;;;;;;8.68;2.55;;;12.20;99.90;;;;;;5060144;28;20189;-77
2022/01/29 12:27:05;;;;;;;4.13;1.85;;;12.20;99.90;;;;;;5068391;28;20167;-77
2022/01/29 12:29:31;;;;;;;6.65;1.80;;;12.30;99.90;;;;;;5066553;28;20163;-78
2022/01/29 12:31:58;;;;;;;7.22;2.50;;;12.40;99.90;;;;;;5066167;28;20225;-77
2022/01/29 12:34:26;;;;;;;3.72;2.40;;;12.40;99.90;;;;;;5060440;28;20189;-77
2022/01/29 12:37:05;;;;;;;4.68;2.10;;;12.40;99.90;;;;;;5055421;28;20164;-78
2022/01/29 12:39:31;;;;;;;7.05;2.10;;;12.30;99.90;;;;;;5054240;28;20167;-78
2022/01/29 12:45:05;;;;;;;7.05;2.33;;;12.10;99.90;;;;;;5055409;28;20195;-78
2022/01/29 12:47:34;;;;;;;4.78;2.25;;;12.30;99.90;;;;;;5057445;28;20225;-78
2022/01/29 12:50:00;;;;;;;2.75;1.52;;;12.20;99.90;;;;;;5057820;28;20685;-77
2022/01/29 12:52:28;;;;;;;9.95;2.60;;;12.10;99.90;;;;;;5058659;28;20206;-78
2022/01/29 12:55:00;;;;;;;2.80;1.67;;;12.30;99.90;;;;;;5056950;28;20201;-79
2022/01/29 12:57:40;;;;;;;5.47;1.90;;;12.40;99.90;;;;;;5058399;28;20163;-78
2022/01/29 13:00:09;;;;;;;7.60;1.95;;;12.40;99.90;;;;;;5057080;28;20155;-78
2022/01/29 13:02:39;;;;;;;7.13;1.83;;;12.50;99.90;;;;;;5055416;28;20191;-78